sensor_id;sensor_type;location;lat;lon;timestamp;pressure;altitude;pressure_sealevel;temperature;humidity
23176;BME280;19910;42.652;23.332;2023-05-12T00:01:57;94867.44;;;8.93;80.52
23176;BME280;19910;42.652;23.332;2023-05-12T00:04:24;94858.84;;;8.91;80.86
23176;BME280;19910;42.652;23.332;2023-05-12T00:06:51;94855.50;;;8.85;80.73
23176;BME280;19910;42.652;23.332;2023-05-12T00:09:17;94852.31;;;8.83;81.00
23176;BME280;19910;42.652;23.332;2023-05-12T00:11:44;94858.53;;;8.84;80.80
23176;BME280;19910;42.652;23.332;2023-05-12T00:14:14;94860.25;;;8.80;80.82
23176;BME280;19910;42.652;23.332;2023-05-12T00:16:41;94857.34;;;8.76;81.18
23176;BME280;19910;42.652;23.332;2023-05-12T00:19:08;94856.56;;;8.76;81.30
23176;BME280;19910;42.652;23.332;2023-05-12T00:21:35;94862.59;;;8.73;81.47
23176;BME280;19910;42.652;23.332;2023-05-12T00:24:01;94861.44;;;8.65;81.64
23176;BME280;19910;42.652;23.332;2023-05-12T00:26:28;94861.88;;;8.59;81.93
23176;BME280;19910;42.652;23.332;2023-05-12T00:28:55;94858.69;;;8.57;82.74
23176;BME280;19910;42.652;23.332;2023-05-12T00:31:23;94864.69;;;8.53;83.25
23176;BME280;19910;42.652;23.332;2023-05-12T00:33:50;94857.22;;;8.50;83.12
23176;BME280;19910;42.652;23.332;2023-05-12T00:36:16;94863.88;;;8.44;84.45
23176;BME280;19910;42.652;23.332;2023-05-12T00:38:43;94867.28;;;8.36;84.59
23176;BME280;19910;42.652;23.332;2023-05-12T00:41:10;94872.41;;;8.24;85.24
23176;BME280;19910;42.652;23.332;2023-05-12T00:43:37;94867.00;;;8.24;86.05
23176;BME280;19910;42.652;23.332;2023-05-12T00:46:04;94873.66;;;8.18;86.96
23176;BME280;19910;42.652;23.332;2023-05-12T00:48:33;94871.66;;;8.10;87.18
23176;BME280;19910;42.652;23.332;2023-05-12T00:51:01;94862.91;;;8.04;89.26
23176;BME280;19910;42.652;23.332;2023-05-12T00:53:29;94872.50;;;7.97;89.08
23176;BME280;19910;42.652;23.332;2023-05-12T00:55:56;94868.81;;;7.93;89.75
23176;BME280;19910;42.652;23.332;2023-05-12T00:58:23;94880.34;;;7.84;90.35
23176;BME280;19910;42.652;23.332;2023-05-12T01:00:49;94877.59;;;7.76;91.29
23176;BME280;19910;42.652;23.332;2023-05-12T01:03:17;94883.00;;;7.62;91.91
23176;BME280;19910;42.652;23.332;2023-05-12T01:05:48;94872.81;;;7.59;93.08
23176;BME280;19910;42.652;23.332;2023-05-12T01:08:16;94877.72;;;7.57;93.45
23176;BME280;19910;42.652;23.332;2023-05-12T01:10:45;94878.94;;;7.51;93.01
23176;BME280;19910;42.652;23.332;2023-05-12T01:13:12;94882.81;;;7.45;94.49
23176;BME280;19910;42.652;23.332;2023-05-12T01:15:42;94881.03;;;7.27;94.85
23176;BME280;19910;42.652;23.332;2023-05-12T01:18:10;94879.13;;;7.27;95.57
23176;BME280;19910;42.652;23.332;2023-05-12T01:20:40;94880.84;;;7.23;96.08
23176;BME280;19910;42.652;23.332;2023-05-12T01:23:09;94891.13;;;7.21;97.02
23176;BME280;19910;42.652;23.332;2023-05-12T01:25:38;94894.69;;;7.17;97.90
23176;BME280;19910;42.652;23.332;2023-05-12T01:28:06;94891.63;;;7.09;98.72
23176;BME280;19910;42.652;23.332;2023-05-12T01:30:34;94882.03;;;7.03;97.99
23176;BME280;19910;42.652;23.332;2023-05-12T01:33:03;94881.31;;;6.98;98.26
23176;BME280;19910;42.652;23.332;2023-05-12T01:35:30;94887.03;;;6.96;97.16
23176;BME280;19910;42.652;23.332;2023-05-12T01:37:56;94886.00;;;6.92;98.52
23176;BME280;19910;42.652;23.332;2023-05-12T01:40:24;94882.59;;;6.87;98.84
23176;BME280;19910;42.652;23.332;2023-05-12T01:42:51;94884.22;;;6.88;99.71
23176;BME280;19910;42.652;23.332;2023-05-12T01:45:20;94880.22;;;6.85;100.00
23176;BME280;19910;42.652;23.332;2023-05-12T01:47:47;94881.63;;;6.83;100.00
23176;BME280;19910;42.652;23.332;2023-05-12T01:50:13;94881.00;;;6.86;100.00
23176;BME280;19910;42.652;23.332;2023-05-12T01:52:40;94885.50;;;6.76;100.00
23176;BME280;19910;42.652;23.332;2023-05-12T01:55:08;94883.00;;;6.80;100.00
23176;BME280;19910;42.652;23.332;2023-05-12T01:57:35;94880.91;;;6.77;100.00
23176;BME280;19910;42.652;23.332;2023-05-12T02:00:02;94881.59;;;6.69;100.00
23176;BME280;19910;42.652;23.332;2023-05-12T02:02:31;94880.81;;;6.68;100.00
23176;BME280;19910;42.652;23.332;2023-05-12T02:04:58;94876.22;;;6.69;100.00
23176;BME280;19910;42.652;23.332;2023-05-12T02:07:25;94885.69;;;6.66;100.00
23176;BME280;19910;42.652;23.332;2023-05-12T02:09:52;94884.38;;;6.64;100.00
23176;BME280;19910;42.652;23.332;2023-05-12T02:12:19;94884.88;;;6.66;100.00
23176;BME280;19910;42.652;23.332;2023-05-12T02:14:45;94883.78;;;6.67;100.00
23176;BME280;19910;42.652;23.332;2023-05-12T02:17:12;94882.78;;;6.63;100.00
23176;BME280;19910;42.652;23.332;2023-05-12T02:19:40;94879.00;;;6.64;100.00
23176;BME280;19910;42.652;23.332;2023-05-12T02:22:07;94881.19;;;6.62;100.00
23176;BME280;19910;42.652;23.332;2023-05-12T02:24:35;94886.06;;;6.60;100.00
23176;BME280;19910;42.652;23.332;2023-05-12T02:27:01;94881.19;;;6.62;100.00
23176;BME280;19910;42.652;23.332;2023-05-12T02:29:28;94886.56;;;6.62;100.00
23176;BME280;19910;42.652;23.332;2023-05-12T02:31:55;94887.16;;;6.59;100.00
23176;BME280;19910;42.652;23.332;2023-05-12T02:34:22;94884.06;;;6.52;100.00
23176;BME280;19910;42.652;23.332;2023-05-12T02:36:50;94889.72;;;6.50;100.00
23176;BME280;19910;42.652;23.332;2023-05-12T02:39:16;94886.53;;;6.48;100.00
23176;BME280;19910;42.652;23.332;2023-05-12T02:41:43;94892.19;;;6.47;100.00
23176;BME280;19910;42.652;23.332;2023-05-12T02:44:10;94883.91;;;6.43;100.00
23176;BME280;19910;42.652;23.332;2023-05-12T02:46:37;94884.94;;;6.47;100.00
23176;BME280;19910;42.652;23.332;2023-05-12T02:49:03;94882.53;;;6.46;100.00
23176;BME280;19910;42.652;23.332;2023-05-12T02:51:30;94876.56;;;6.49;100.00
23176;BME280;19910;42.652;23.332;2023-05-12T02:53:58;94891.69;;;6.45;100.00
23176;BME280;19910;42.652;23.332;2023-05-12T02:56:25;94874.56;;;6.40;100.00
23176;BME280;19910;42.652;23.332;2023-05-12T02:58:52;94876.75;;;6.38;100.00
23176;BME280;19910;42.652;23.332;2023-05-12T03:01:19;94878.94;;;6.36;100.00
23176;BME280;19910;42.652;23.332;2023-05-12T03:03:46;94888.66;;;6.32;100.00
23176;BME280;19910;42.652;23.332;2023-05-12T03:06:12;94891.13;;;6.29;100.00
23176;BME280;19910;42.652;23.332;2023-05-12T03:08:39;94893.06;;;6.28;100.00
23176;BME280;19910;42.652;23.332;2023-05-12T03:11:08;94883.28;;;6.32;100.00
23176;BME280;19910;42.652;23.332;2023-05-12T03:13:34;94889.25;;;6.29;100.00
23176;BME280;19910;42.652;23.332;2023-05-12T03:16:01;94883.38;;;6.27;100.00
23176;BME280;19910;42.652;23.332;2023-05-12T03:18:28;94894.72;;;6.24;100.00
23176;BME280;19910;42.652;23.332;2023-05-12T03:20:55;94892.34;;;6.23;100.00
23176;BME280;19910;42.652;23.332;2023-05-12T03:23:22;94890.94;;;6.25;100.00
23176;BME280;19910;42.652;23.332;2023-05-12T03:25:48;94901.41;;;6.27;100.00
23176;BME280;19910;42.652;23.332;2023-05-12T03:28:17;94911.88;;;6.28;100.00
23176;BME280;19910;42.652;23.332;2023-05-12T03:30:44;94904.41;;;6.25;100.00
23176;BME280;19910;42.652;23.332;2023-05-12T03:33:10;94897.94;;;6.26;100.00
23176;BME280;19910;42.652;23.332;2023-05-12T03:35:37;94899.03;;;6.25;100.00
23176;BME280;19910;42.652;23.332;2023-05-12T03:38:04;94911.97;;;6.23;100.00
23176;BME280;19910;42.652;23.332;2023-05-12T03:40:31;94908.19;;;6.24;100.00
23176;BME280;19910;42.652;23.332;2023-05-12T03:42:58;94915.16;;;6.25;100.00
23176;BME280;19910;42.652;23.332;2023-05-12T03:45:26;94910.28;;;6.27;100.00
23176;BME280;19910;42.652;23.332;2023-05-12T03:47:52;94912.66;;;6.29;100.00
23176;BME280;19910;42.652;23.332;2023-05-12T03:50:19;94906.69;;;6.32;100.00
23176;BME280;19910;42.652;23.332;2023-05-12T03:52:46;94899.03;;;6.25;100.00
23176;BME280;19910;42.652;23.332;2023-05-12T03:55:13;94912.38;;;6.30;100.00
23176;BME280;19910;42.652;23.332;2023-05-12T03:57:40;94910.59;;;6.26;100.00
23176;BME280;19910;42.652;23.332;2023-05-12T04:00:07;94912.38;;;6.30;100.00
23176;BME280;19910;42.652;23.332;2023-05-12T04:02:35;94897.84;;;6.31;100.00
23176;BME280;19910;42.652;23.332;2023-05-12T04:05:02;94907.44;;;6.37;100.00
23176;BME280;19910;42.652;23.332;2023-05-12T04:07:32;94918.78;;;6.34;100.00
23176;BME280;19910;42.652;23.332;2023-05-12T04:09:59;94923.78;;;6.41;100.00
23176;BME280;19910;42.652;23.332;2023-05-12T04:12:26;94919.78;;;6.38;100.00
23176;BME280;19910;42.652;23.332;2023-05-12T04:14:52;94926.16;;;6.42;100.00
23176;BME280;19910;42.652;23.332;2023-05-12T04:17:19;94929.38;;;6.45;100.00
23176;BME280;19910;42.652;23.332;2023-05-12T04:19:47;94931.59;;;6.56;100.00
23176;BME280;19910;42.652;23.332;2023-05-12T04:22:14;94928.72;;;6.53;100.00
23176;BME280;19910;42.652;23.332;2023-05-12T04:24:41;94921.84;;;6.60;100.00
23176;BME280;19910;42.652;23.332;2023-05-12T04:27:07;94931.72;;;6.65;100.00
23176;BME280;19910;42.652;23.332;2023-05-12T04:29:34;94928.06;;;6.74;100.00
23176;BME280;19910;42.652;23.332;2023-05-12T04:32:01;94924.84;;;6.72;100.00
23176;BME280;19910;42.652;23.332;2023-05-12T04:34:28;94930.28;;;6.86;100.00
23176;BME280;19910;42.652;23.332;2023-05-12T04:36:56;94928.88;;;6.89;100.00
23176;BME280;19910;42.652;23.332;2023-05-12T04:39:23;94928.59;;;6.90;100.00
23176;BME280;19910;42.652;23.332;2023-05-12T04:41:49;94931.50;;;6.94;100.00
23176;BME280;19910;42.652;23.332;2023-05-12T04:44:16;94922.13;;;6.91;100.00
23176;BME280;19910;42.652;23.332;2023-05-12T04:46:43;94914.94;;;7.00;100.00
23176;BME280;19910;42.652;23.332;2023-05-12T04:49:10;94921.94;;;7.01;100.00
23176;BME280;19910;42.652;23.332;2023-05-12T04:51:36;94923.53;;;7.02;100.00
23176;BME280;19910;42.652;23.332;2023-05-12T04:54:08;94921.94;;;7.01;100.00
23176;BME280;19910;42.652;23.332;2023-05-12T04:56:35;94922.34;;;7.08;100.00
23176;BME280;19910;42.652;23.332;2023-05-12T04:59:01;94930.81;;;7.16;100.00
23176;BME280;19910;42.652;23.332;2023-05-12T05:01:28;94932.50;;;7.11;100.00
23176;BME280;19910;42.652;23.332;2023-05-12T05:03:55;94924.41;;;7.11;100.00
23176;BME280;19910;42.652;23.332;2023-05-12T05:06:22;94932.50;;;7.11;100.00
23176;BME280;19910;42.652;23.332;2023-05-12T05:08:48;94928.72;;;7.12;100.00
23176;BME280;19910;42.652;23.332;2023-05-12T05:11:17;94923.63;;;7.25;100.00
23176;BME280;19910;42.652;23.332;2023-05-12T05:13:44;94921.94;;;7.29;100.00
23176;BME280;19910;42.652;23.332;2023-05-12T05:16:10;94931.03;;;7.33;100.00
23176;BME280;19910;42.652;23.332;2023-05-12T05:18:37;94936.94;;;7.35;100.00
23176;BME280;19910;42.652;23.332;2023-05-12T05:21:06;94944.00;;;7.31;100.00
23176;BME280;19910;42.652;23.332;2023-05-12T05:23:33;94934.91;;;7.27;100.00
23176;BME280;19910;42.652;23.332;2023-05-12T05:26:00;94943.72;;;7.32;100.00
23176;BME280;19910;42.652;23.332;2023-05-12T05:28:28;94946.69;;;7.31;100.00
23176;BME280;19910;42.652;23.332;2023-05-12T05:30:55;94938.81;;;7.34;100.00
23176;BME280;19910;42.652;23.332;2023-05-12T05:33:22;94944.09;;;7.39;100.00
23176;BME280;19910;42.652;23.332;2023-05-12T05:35:49;94941.09;;;7.41;100.00
23176;BME280;19910;42.652;23.332;2023-05-12T05:38:16;94941.53;;;7.48;100.00
23176;BME280;19910;42.652;23.332;2023-05-12T05:40:42;94936.50;;;7.41;100.00
23176;BME280;19910;42.652;23.332;2023-05-12T05:43:09;94948.28;;;7.59;100.00
23176;BME280;19910;42.652;23.332;2023-05-12T05:45:37;94947.69;;;7.62;100.00
23176;BME280;19910;42.652;23.332;2023-05-12T05:48:05;94947.28;;;7.69;100.00
23176;BME280;19910;42.652;23.332;2023-05-12T05:50:32;94947.50;;;7.72;100.00
23176;BME280;19910;42.652;23.332;2023-05-12T05:53:00;94965.47;;;7.63;98.98
23176;BME280;19910;42.652;23.332;2023-05-12T05:55:27;94938.91;;;7.70;99.88
23176;BME280;19910;42.652;23.332;2023-05-12T05:57:54;94950.09;;;7.77;100.00
23176;BME280;19910;42.652;23.332;2023-05-12T06:00:21;94950.47;;;7.84;99.90
23176;BME280;19910;42.652;23.332;2023-05-12T06:02:49;94945.56;;;7.87;98.59
23176;BME280;19910;42.652;23.332;2023-05-12T06:05:16;94938.66;;;7.94;98.26
23176;BME280;19910;42.652;23.332;2023-05-12T06:07:42;94940.22;;;8.09;98.66
23176;BME280;19910;42.652;23.332;2023-05-12T06:10:09;94948.44;;;8.04;98.24
23176;BME280;19910;42.652;23.332;2023-05-12T06:12:36;94928.66;;;7.95;96.91
23176;BME280;19910;42.652;23.332;2023-05-12T06:15:05;94942.41;;;8.07;96.93
23176;BME280;19910;42.652;23.332;2023-05-12T06:17:32;94949.41;;;8.08;97.04
23176;BME280;19910;42.652;23.332;2023-05-12T06:20:01;94960.59;;;8.15;96.07
23176;BME280;19910;42.652;23.332;2023-05-12T06:22:29;94955.56;;;8.22;96.16
23176;BME280;19910;42.652;23.332;2023-05-12T06:24:56;94950.56;;;8.43;95.70
23176;BME280;19910;42.652;23.332;2023-05-12T06:27:23;94957.56;;;8.30;94.14
23176;BME280;19910;42.652;23.332;2023-05-12T06:29:52;94950.00;;;8.32;94.89
23176;BME280;19910;42.652;23.332;2023-05-12T06:32:19;94954.53;;;8.45;94.11
23176;BME280;19910;42.652;23.332;2023-05-12T06:34:46;94958.09;;;8.54;93.42
23176;BME280;19910;42.652;23.332;2023-05-12T06:37:14;94971.72;;;8.49;93.05
23176;BME280;19910;42.652;23.332;2023-05-12T06:39:41;94966.56;;;8.39;92.08
23176;BME280;19910;42.652;23.332;2023-05-12T06:42:08;94974.72;;;8.48;92.72
23176;BME280;19910;42.652;23.332;2023-05-12T06:44:35;94964.72;;;8.48;92.46
23176;BME280;19910;42.652;23.332;2023-05-12T06:47:02;94974.91;;;8.51;91.05
23176;BME280;19910;42.652;23.332;2023-05-12T06:49:29;94964.94;;;8.38;90.92
23176;BME280;19910;42.652;23.332;2023-05-12T06:52:00;94969.75;;;8.41;90.40
23176;BME280;19910;42.652;23.332;2023-05-12T06:54:28;94969.25;;;8.39;90.93
23176;BME280;19910;42.652;23.332;2023-05-12T06:56:55;94967.91;;;8.50;91.11
23176;BME280;19910;42.652;23.332;2023-05-12T06:59:22;94966.50;;;8.53;91.46
23176;BME280;19910;42.652;23.332;2023-05-12T07:01:49;94976.56;;;8.61;90.67
23176;BME280;19910;42.652;23.332;2023-05-12T07:04:15;94964.91;;;8.52;90.60
23176;BME280;19910;42.652;23.332;2023-05-12T07:06:42;94962.16;;;8.66;90.46
23176;BME280;19910;42.652;23.332;2023-05-12T07:09:09;94970.63;;;8.73;90.03
23176;BME280;19910;42.652;23.332;2023-05-12T07:11:37;94974.28;;;8.77;89.84
23176;BME280;19910;42.652;23.332;2023-05-12T07:14:04;94962.91;;;8.58;90.60
23176;BME280;19910;42.652;23.332;2023-05-12T07:16:30;94973.50;;;8.54;90.94
23176;BME280;19910;42.652;23.332;2023-05-12T07:18:57;94973.09;;;8.61;91.35
23176;BME280;19910;42.652;23.332;2023-05-12T07:21:24;94973.69;;;8.58;90.60
23176;BME280;19910;42.652;23.332;2023-05-12T07:23:51;94976.63;;;8.70;90.50
23176;BME280;19910;42.652;23.332;2023-05-12T07:26:18;94967.06;;;8.64;89.79
23176;BME280;19910;42.652;23.332;2023-05-12T07:28:47;94983.75;;;8.66;89.12
23176;BME280;19910;42.652;23.332;2023-05-12T07:31:14;94973.63;;;8.71;89.42
23176;BME280;19910;42.652;23.332;2023-05-12T07:33:41;94978.53;;;8.91;88.93
23176;BME280;19910;42.652;23.332;2023-05-12T07:36:08;94973.84;;;9.06;88.57
23176;BME280;19910;42.652;23.332;2023-05-12T07:38:34;94978.09;;;8.98;87.91
23176;BME280;19910;42.652;23.332;2023-05-12T07:41:01;94970.66;;;9.35;89.82
23176;BME280;19910;42.652;23.332;2023-05-12T07:43:29;94974.03;;;9.40;87.47
23176;BME280;19910;42.652;23.332;2023-05-12T07:45:57;94977.06;;;9.39;86.75
23176;BME280;19910;42.652;23.332;2023-05-12T07:48:25;94978.03;;;9.43;86.85
23176;BME280;19910;42.652;23.332;2023-05-12T07:50:52;94986.59;;;9.45;85.60
23176;BME280;19910;42.652;23.332;2023-05-12T07:53:18;94982.75;;;9.29;86.80
23176;BME280;19910;42.652;23.332;2023-05-12T07:55:45;94972.97;;;9.50;84.60
23176;BME280;19910;42.652;23.332;2023-05-12T07:58:12;94968.94;;;9.78;83.59
23176;BME280;19910;42.652;23.332;2023-05-12T08:00:39;94967.72;;;10.02;81.71
23176;BME280;19910;42.652;23.332;2023-05-12T08:03:07;94958.09;;;10.35;81.08
23176;BME280;19910;42.652;23.332;2023-05-12T08:05:34;94980.53;;;10.44;79.39
23176;BME280;19910;42.652;23.332;2023-05-12T08:08:01;94951.84;;;10.69;79.23
23176;BME280;19910;42.652;23.332;2023-05-12T08:10:28;94960.63;;;10.83;77.14
23176;BME280;19910;42.652;23.332;2023-05-12T08:12:56;94960.31;;;10.76;77.84
23176;BME280;19910;42.652;23.332;2023-05-12T08:15:23;94969.16;;;11.28;77.44
23176;BME280;19910;42.652;23.332;2023-05-12T08:17:50;94962.03;;;11.53;76.64
23176;BME280;19910;42.652;23.332;2023-05-12T08:20:18;94953.75;;;11.50;74.33
23176;BME280;19910;42.652;23.332;2023-05-12T08:22:45;94962.66;;;10.95;76.04
23176;BME280;19910;42.652;23.332;2023-05-12T08:25:12;94969.50;;;11.10;77.62
23176;BME280;19910;42.652;23.332;2023-05-12T08:27:39;94974.59;;;11.11;76.50
23176;BME280;19910;42.652;23.332;2023-05-12T08:30:07;94973.50;;;11.12;76.29
23176;BME280;19910;42.652;23.332;2023-05-12T08:32:34;94967.09;;;11.17;75.90
23176;BME280;19910;42.652;23.332;2023-05-12T08:35:00;94966.28;;;11.33;75.11
23176;BME280;19910;42.652;23.332;2023-05-12T08:37:29;94956.59;;;11.15;75.49
23176;BME280;19910;42.652;23.332;2023-05-12T08:39:56;94966.44;;;11.28;75.39
23176;BME280;19910;42.652;23.332;2023-05-12T08:42:29;94973.09;;;11.39;75.00
23176;BME280;19910;42.652;23.332;2023-05-12T08:45:01;94968.84;;;11.68;75.56
23176;BME280;19910;42.652;23.332;2023-05-12T08:47:29;94971.63;;;11.51;73.63
23176;BME280;19910;42.652;23.332;2023-05-12T08:49:58;94965.66;;;11.19;75.26
23176;BME280;19910;42.652;23.332;2023-05-12T08:52:26;94964.03;;;11.27;74.73
23176;BME280;19910;42.652;23.332;2023-05-12T08:54:56;94965.97;;;11.26;74.07
23176;BME280;19910;42.652;23.332;2023-05-12T08:57:23;94963.19;;;11.44;74.91
23176;BME280;19910;42.652;23.332;2023-05-12T08:59:53;94960.88;;;11.63;75.23
23176;BME280;19910;42.652;23.332;2023-05-12T09:02:20;94970.13;;;11.62;73.44
23176;BME280;19910;42.652;23.332;2023-05-12T09:04:48;94958.16;;;11.63;73.37
23176;BME280;19910;42.652;23.332;2023-05-12T09:07:16;94964.03;;;11.82;73.64
23176;BME280;19910;42.652;23.332;2023-05-12T09:09:44;94956.41;;;11.67;73.38
23176;BME280;19910;42.652;23.332;2023-05-12T09:12:15;94960.19;;;11.83;73.13
23176;BME280;19910;42.652;23.332;2023-05-12T09:14:44;94954.59;;;11.88;72.87
23176;BME280;19910;42.652;23.332;2023-05-12T09:17:11;94953.84;;;11.62;73.47
23176;BME280;19910;42.652;23.332;2023-05-12T09:19:38;94948.31;;;11.58;73.46
23176;BME280;19910;42.652;23.332;2023-05-12T09:22:05;94956.22;;;11.72;73.41
23176;BME280;19910;42.652;23.332;2023-05-12T09:24:34;94949.47;;;11.87;73.70
23176;BME280;19910;42.652;23.332;2023-05-12T09:27:02;94949.84;;;11.68;72.84
23176;BME280;19910;42.652;23.332;2023-05-12T09:29:31;94947.91;;;11.77;73.24
23176;BME280;19910;42.652;23.332;2023-05-12T09:32:02;94934.84;;;11.70;72.69
23176;BME280;19910;42.652;23.332;2023-05-12T09:34:31;94947.75;;;11.82;73.32
23176;BME280;19910;42.652;23.332;2023-05-12T09:37:02;94936.66;;;11.58;72.69
23176;BME280;19910;42.652;23.332;2023-05-12T09:39:29;94939.28;;;11.75;72.22
23176;BME280;19910;42.652;23.332;2023-05-12T09:41:56;94939.69;;;11.94;71.88
23176;BME280;19910;42.652;23.332;2023-05-12T09:44:23;94944.31;;;12.23;71.87
23176;BME280;19910;42.652;23.332;2023-05-12T09:46:52;94942.19;;;12.70;71.15
23176;BME280;19910;42.652;23.332;2023-05-12T09:49:19;94937.09;;;12.48;69.85
23176;BME280;19910;42.652;23.332;2023-05-12T09:51:50;94946.22;;;12.23;69.34
23176;BME280;19910;42.652;23.332;2023-05-12T09:54:23;94941.41;;;12.49;68.87
23176;BME280;19910;42.652;23.332;2023-05-12T09:56:52;94936.25;;;12.56;69.20
23176;BME280;19910;42.652;23.332;2023-05-12T09:59:23;94934.00;;;12.91;67.70
23176;BME280;19910;42.652;23.332;2023-05-12T10:01:56;94929.84;;;13.06;67.36
23176;BME280;19910;42.652;23.332;2023-05-12T10:04:24;94926.63;;;12.92;68.55
23176;BME280;19910;42.652;23.332;2023-05-12T10:06:52;94921.31;;;13.28;67.77
23176;BME280;19910;42.652;23.332;2023-05-12T10:09:23;94915.13;;;13.07;67.05
23176;BME280;19910;42.652;23.332;2023-05-12T10:11:51;94924.16;;;13.20;66.60
23176;BME280;19910;42.652;23.332;2023-05-12T10:14:18;94926.69;;;13.04;65.28
23176;BME280;19910;42.652;23.332;2023-05-12T10:16:45;94922.72;;;13.46;65.12
23176;BME280;19910;42.652;23.332;2023-05-12T10:19:14;94922.59;;;13.55;64.78
23176;BME280;19910;42.652;23.332;2023-05-12T10:21:42;94911.63;;;13.64;64.66
23176;BME280;19910;42.652;23.332;2023-05-12T10:24:10;94918.19;;;13.87;63.06
23176;BME280;19910;42.652;23.332;2023-05-12T10:26:41;94905.94;;;13.69;63.40
23176;BME280;19910;42.652;23.332;2023-05-12T10:29:08;94918.00;;;13.92;63.77
23176;BME280;19910;42.652;23.332;2023-05-12T10:31:36;94911.75;;;13.79;63.32
23176;BME280;19910;42.652;23.332;2023-05-12T10:34:03;94906.97;;;13.88;63.41
23176;BME280;19910;42.652;23.332;2023-05-12T10:36:42;94900.94;;;13.95;63.53
23176;BME280;19910;42.652;23.332;2023-05-12T10:39:12;94904.88;;;14.22;62.95
23176;BME280;19910;42.652;23.332;2023-05-12T10:41:39;94901.34;;;14.21;62.94
23176;BME280;19910;42.652;23.332;2023-05-12T10:44:05;94895.03;;;14.17;62.20
23176;BME280;19910;42.652;23.332;2023-05-12T10:46:33;94894.00;;;14.74;62.24
23176;BME280;19910;42.652;23.332;2023-05-12T10:49:02;94891.38;;;14.66;60.86
23176;BME280;19910;42.652;23.332;2023-05-12T10:51:30;94891.78;;;14.52;60.81
23176;BME280;19910;42.652;23.332;2023-05-12T10:54:00;94890.13;;;14.75;59.56
23176;BME280;19910;42.652;23.332;2023-05-12T10:56:28;94888.94;;;14.88;59.92
23176;BME280;19910;42.652;23.332;2023-05-12T10:59:05;94897.91;;;15.05;59.26
23176;BME280;19910;42.652;23.332;2023-05-12T11:01:32;94897.06;;;15.32;58.88
23176;BME280;19910;42.652;23.332;2023-05-12T11:04:09;94896.69;;;15.18;58.71
23176;BME280;19910;42.652;23.332;2023-05-12T11:06:36;94898.53;;;14.70;60.03
23176;BME280;19910;42.652;23.332;2023-05-12T11:09:04;94892.19;;;14.66;59.76
23176;BME280;19910;42.652;23.332;2023-05-12T11:11:31;94901.94;;;14.67;59.96
23176;BME280;19910;42.652;23.332;2023-05-12T11:13:59;94901.44;;;14.89;59.82
23176;BME280;19910;42.652;23.332;2023-05-12T11:16:26;94908.34;;;15.15;59.69
23176;BME280;19910;42.652;23.332;2023-05-12T11:19:00;94909.06;;;15.27;58.43
23176;BME280;19910;42.652;23.332;2023-05-12T11:21:30;94911.31;;;15.10;59.65
23176;BME280;19910;42.652;23.332;2023-05-12T11:23:57;94903.09;;;14.94;59.40
23176;BME280;19910;42.652;23.332;2023-05-12T11:26:26;94908.66;;;14.98;59.08
23176;BME280;19910;42.652;23.332;2023-05-12T11:28:53;94909.72;;;15.09;59.29
23176;BME280;19910;42.652;23.332;2023-05-12T11:31:20;94913.50;;;15.04;60.30
23176;BME280;19910;42.652;23.332;2023-05-12T11:33:48;94903.88;;;14.94;58.95
23176;BME280;19910;42.652;23.332;2023-05-12T11:36:15;94908.88;;;14.92;59.90
23176;BME280;19910;42.652;23.332;2023-05-12T11:38:48;94909.94;;;14.88;59.55
23176;BME280;19910;42.652;23.332;2023-05-12T11:41:21;94922.47;;;14.77;60.30
23176;BME280;19910;42.652;23.332;2023-05-12T11:43:49;94920.19;;;14.39;61.11
23176;BME280;19910;42.652;23.332;2023-05-12T11:46:23;94914.97;;;14.46;61.63
23176;BME280;19910;42.652;23.332;2023-05-12T11:48:54;94902.50;;;14.33;61.15
23176;BME280;19910;42.652;23.332;2023-05-12T11:51:22;94910.59;;;14.05;60.63
23176;BME280;19910;42.652;23.332;2023-05-12T11:53:49;94907.19;;;14.20;61.33
23176;BME280;19910;42.652;23.332;2023-05-12T11:56:17;94898.91;;;14.04;61.59
23176;BME280;19910;42.652;23.332;2023-05-12T11:58:53;94913.88;;;14.10;61.36
23176;BME280;19910;42.652;23.332;2023-05-12T12:01:20;94908.34;;;14.07;62.12
23176;BME280;19910;42.652;23.332;2023-05-12T12:03:48;94903.72;;;14.35;60.20
23176;BME280;19910;42.652;23.332;2023-05-12T12:06:16;94914.56;;;14.19;59.20
23176;BME280;19910;42.652;23.332;2023-05-12T12:08:50;94915.91;;;14.13;60.01
23176;BME280;19910;42.652;23.332;2023-05-12T12:11:17;94908.47;;;14.38;58.96
23176;BME280;19910;42.652;23.332;2023-05-12T12:13:49;94912.03;;;14.27;59.85
23176;BME280;19910;42.652;23.332;2023-05-12T12:16:23;94911.53;;;14.49;59.13
23176;BME280;19910;42.652;23.332;2023-05-12T12:18:51;94923.25;;;14.37;58.56
23176;BME280;19910;42.652;23.332;2023-05-12T12:21:18;94908.16;;;14.28;58.16
23176;BME280;19910;42.652;23.332;2023-05-12T12:23:45;94927.03;;;14.08;58.72
23176;BME280;19910;42.652;23.332;2023-05-12T12:26:12;94918.59;;;14.38;58.33
23176;BME280;19910;42.652;23.332;2023-05-12T12:28:41;94912.47;;;14.29;58.81
23176;BME280;19910;42.652;23.332;2023-05-12T12:31:08;94917.69;;;14.21;58.26
23176;BME280;19910;42.652;23.332;2023-05-12T12:33:36;94915.53;;;14.27;58.85
23176;BME280;19910;42.652;23.332;2023-05-12T12:36:03;94915.66;;;14.31;59.00
23176;BME280;19910;42.652;23.332;2023-05-12T12:38:32;94919.97;;;14.32;58.00
23176;BME280;19910;42.652;23.332;2023-05-12T12:40:59;94908.75;;;14.21;57.88
23176;BME280;19910;42.652;23.332;2023-05-12T12:43:26;94912.88;;;14.03;58.46
23176;BME280;19910;42.652;23.332;2023-05-12T12:45:53;94914.34;;;14.00;58.27
23176;BME280;19910;42.652;23.332;2023-05-12T12:48:20;94915.56;;;14.15;57.79
23176;BME280;19910;42.652;23.332;2023-05-12T12:50:48;94905.66;;;14.22;58.29
23176;BME280;19910;42.652;23.332;2023-05-12T12:53:15;94919.56;;;13.93;57.73
23176;BME280;19910;42.652;23.332;2023-05-12T12:55:45;94911.63;;;13.88;59.40